Wylie's Hourly Summary for Tuesday, July 10, 2018
Hour Temp
(f)
RH
(%)
Solar Rad.
(MJ/m2)
Rainfall
(in)
Wind
(mph)
7/10/2018 12:00 AM 78 77 0 0 4.42
7/10/2018 1:00 AM 77 79 0 0 4.66
7/10/2018 2:00 AM 77 81 0 0 3.59
7/10/2018 3:00 AM 76 83 0 0 3.72
7/10/2018 4:00 AM 75 85 0 0 2.19
7/10/2018 5:00 AM 75 90 0 0 3.12
7/10/2018 6:00 AM 74 100 0 0 2.58
7/10/2018 7:00 AM 74 100 0.02 0 3.37
7/10/2018 8:00 AM 74 96 0.18 0 3.32
7/10/2018 9:00 AM 76 83 0.54 0 3.47
7/10/2018 10:00 AM 79 69 1.35 0 2.88
7/10/2018 11:00 AM 84 58 2.35 0 2.47
7/10/2018 12:00 PM 87 49 2.81 0 2.65
7/10/2018 1:00 PM 89 48 2.86 0 3.22
7/10/2018 2:00 PM 89 47 1.76 0 3.99
7/10/2018 3:00 PM 91 41 2.58 0 4.55
7/10/2018 4:00 PM 92 40 2.54 0 4.48
7/10/2018 5:00 PM 86 40 0.53 0 7.59
7/10/2018 6:00 PM 83 60 0.56 0 3.93
7/10/2018 7:00 PM 84 55 0.45 0 2.89
7/10/2018 8:00 PM 84 55 0.21 0 3.45
7/10/2018 9:00 PM 83 59 0.02 0 1.41
7/10/2018 10:00 PM 82 61 0 0 2.88
7/10/2018 11:00 PM 81 65 0 0 0.79
Data Summary 81 67 18.76 0.00 3.40